createdAt,value
2017-08-09T00:00:34.662Z,22.38
2017-08-09T00:01:15.228Z,22.3
2017-08-09T00:01:55.877Z,22.38
2017-08-09T00:02:36.460Z,22.3
2017-08-09T00:03:17.033Z,22.36
2017-08-09T00:03:57.629Z,22.35
2017-08-09T00:04:38.198Z,22.38
2017-08-09T00:05:18.769Z,22.32
2017-08-09T00:05:59.339Z,22.33
2017-08-09T00:06:39.905Z,22.32
2017-08-09T00:07:20.494Z,22.36
2017-08-09T00:08:01.072Z,22.32
2017-08-09T00:08:41.665Z,22.36
2017-08-09T00:09:22.276Z,22.23
2017-08-09T00:10:02.864Z,22.36
2017-08-09T00:10:43.481Z,22.32
2017-08-09T00:11:24.048Z,22.3
2017-08-09T00:12:04.620Z,22.2
2017-08-09T00:12:45.261Z,22.29
2017-08-09T00:13:25.810Z,22.3
2017-08-09T00:14:06.429Z,22.3
2017-08-09T00:14:46.992Z,22.28
2017-08-09T00:15:27.578Z,22.28
2017-08-09T00:16:08.152Z,22.3
2017-08-09T00:16:48.743Z,22.29
2017-08-09T00:17:29.328Z,22.25
2017-08-09T00:18:09.917Z,22.36
2017-08-09T00:18:50.490Z,22.28
2017-08-09T00:19:31.074Z,22.25
2017-08-09T00:20:11.672Z,22.29
2017-08-09T00:20:52.257Z,22.32
2017-08-09T00:21:33.068Z,22.18
2017-08-09T00:22:13.666Z,22.25
2017-08-09T00:22:54.244Z,22.29
2017-08-09T00:23:34.831Z,22.28
2017-08-09T00:24:15.404Z,22.28
2017-08-09T00:24:55.969Z,22.26
2017-08-09T00:25:36.544Z,22.23
2017-08-09T00:26:17.132Z,22.2
2017-08-09T00:26:57.727Z,22.18
2017-08-09T00:27:38.313Z,22.28
2017-08-09T00:28:18.884Z,22.15
2017-08-09T00:29:06.195Z,22.17
2017-08-09T00:29:46.766Z,22.14
2017-08-09T00:30:27.357Z,22.23
2017-08-09T00:31:07.929Z,22.15
2017-08-09T00:31:48.525Z,22.11
2017-08-09T00:32:29.094Z,22.14
2017-08-09T00:33:09.703Z,22.13
2017-08-09T00:33:50.323Z,22.14
2017-08-09T00:34:30.888Z,22.14
2017-08-09T00:35:11.459Z,22.13
2017-08-09T00:35:52.032Z,22.02
2017-08-09T00:36:32.623Z,22.07
2017-08-09T00:37:13.196Z,22.04
2017-08-09T00:37:53.778Z,22.15
2017-08-09T00:38:34.355Z,22.1
2017-08-09T00:39:14.918Z,22.02
2017-08-09T00:39:55.495Z,22.07
2017-08-09T00:40:36.081Z,22.1
2017-08-09T00:41:16.643Z,22.07
2017-08-09T00:41:57.224Z,22.02
2017-08-09T00:42:37.796Z,22.06
2017-08-09T00:43:18.368Z,22.06
2017-08-09T00:43:58.948Z,22.04
2017-08-09T00:44:39.557Z,22.04
2017-08-09T00:45:20.121Z,22.1
2017-08-09T00:46:00.723Z,22.04
2017-08-09T00:46:41.335Z,22.06
2017-08-09T00:47:21.872Z,22.04
2017-08-09T00:48:02.467Z,22.07
2017-08-09T00:48:43.043Z,22.06
2017-08-09T00:49:23.617Z,22.08
2017-08-09T00:50:04.199Z,21.99
2017-08-09T00:50:44.764Z,22.02
2017-08-09T00:51:25.353Z,22.06
2017-08-09T00:52:05.923Z,22.07
2017-08-09T00:52:46.519Z,21.99
2017-08-09T00:53:27.103Z,21.98
2017-08-09T00:54:07.688Z,22.04
2017-08-09T00:54:48.263Z,22.04
2017-08-09T00:55:28.855Z,22.11
2017-08-09T00:56:09.440Z,22.04
2017-08-09T00:56:50.015Z,22.02
2017-08-09T00:57:30.715Z,22.04
2017-08-09T00:58:11.259Z,22.04
2017-08-09T00:58:51.849Z,22.08
2017-08-09T00:59:32.443Z,22.07
2017-08-09T01:00:13.030Z,22.04
2017-08-09T01:00:53.605Z,22.06
2017-08-09T01:01:34.179Z,22.04
2017-08-09T01:02:14.751Z,22.04
2017-08-09T01:02:55.318Z,21.98
2017-08-09T01:03:35.907Z,22.02
2017-08-09T01:04:16.504Z,21.98
2017-08-09T01:04:57.125Z,22.02
2017-08-09T01:05:37.687Z,21.98
2017-08-09T01:06:18.254Z,22.02
2017-08-09T01:06:58.827Z,21.89
2017-08-09T01:07:39.419Z,21.91
2017-08-09T01:08:19.997Z,22.04
2017-08-09T01:09:00.565Z,21.96
2017-08-09T01:09:41.165Z,21.96
2017-08-09T01:10:21.761Z,21.95
2017-08-09T01:11:02.338Z,21.92
2017-08-09T01:11:42.939Z,21.96
2017-08-09T01:12:23.517Z,21.95
2017-08-09T01:13:04.096Z,21.91
2017-08-09T01:13:44.675Z,21.96
2017-08-09T01:14:25.254Z,21.95
2017-08-09T01:15:05.850Z,21.95
2017-08-09T01:15:46.431Z,21.91
2017-08-09T01:16:27.005Z,21.91
2017-08-09T01:17:07.581Z,21.89
2017-08-09T01:17:48.163Z,21.89
2017-08-09T01:18:28.755Z,21.93
2017-08-09T01:19:09.327Z,21.85
2017-08-09T01:19:49.908Z,21.92
2017-08-09T01:20:30.536Z,21.88
2017-08-09T01:21:11.132Z,21.8
2017-08-09T01:21:51.723Z,21.89
2017-08-09T01:22:32.301Z,21.85
2017-08-09T01:23:12.880Z,21.85
2017-08-09T01:23:53.468Z,21.82
2017-08-09T01:24:34.057Z,21.93
2017-08-09T01:25:14.661Z,21.85
2017-08-09T01:25:55.266Z,21.83
2017-08-09T01:26:35.880Z,21.8
2017-08-09T01:27:16.488Z,21.85
2017-08-09T01:27:57.076Z,21.83
2017-08-09T01:28:37.666Z,21.89
2017-08-09T01:29:18.258Z,21.89
2017-08-09T01:29:58.836Z,21.88
2017-08-09T01:30:39.399Z,21.85
2017-08-09T01:31:19.978Z,21.8
2017-08-09T01:32:00.586Z,21.83
2017-08-09T01:32:41.169Z,21.91
2017-08-09T01:33:21.755Z,21.89
2017-08-09T01:34:02.339Z,21.91
2017-08-09T01:34:42.914Z,21.91
2017-08-09T01:35:23.482Z,21.82
2017-08-09T01:36:04.068Z,21.79
2017-08-09T01:36:44.654Z,21.83
2017-08-09T01:37:25.230Z,21.77
2017-08-09T01:38:05.810Z,21.82
2017-08-09T01:38:46.373Z,21.82
2017-08-09T01:39:26.977Z,21.8
2017-08-09T01:40:07.557Z,21.88
2017-08-09T01:40:48.159Z,21.77
2017-08-09T01:41:28.744Z,21.73
2017-08-09T01:42:09.396Z,21.79
2017-08-09T01:42:49.972Z,21.85
2017-08-09T01:43:30.555Z,21.72
2017-08-09T01:44:11.115Z,21.69
2017-08-09T01:44:51.755Z,21.82
2017-08-09T01:45:32.331Z,21.7
2017-08-09T01:46:12.903Z,21.69
2017-08-09T01:46:53.481Z,21.73
2017-08-09T01:47:34.093Z,21.8
2017-08-09T01:48:14.658Z,21.73
2017-08-09T01:48:55.265Z,21.67
2017-08-09T01:49:35.855Z,21.66
2017-08-09T01:50:16.474Z,21.83
2017-08-09T01:50:57.044Z,21.72
2017-08-09T01:51:37.624Z,21.67
2017-08-09T01:52:18.222Z,21.76
2017-08-09T01:52:58.791Z,21.69
2017-08-09T01:53:39.367Z,21.76
2017-08-09T01:54:19.960Z,21.7
2017-08-09T01:55:00.560Z,21.76
2017-08-09T01:55:41.194Z,21.69
2017-08-09T01:56:21.783Z,21.8
2017-08-09T01:57:02.364Z,21.77
2017-08-09T01:57:42.943Z,21.77
2017-08-09T01:58:23.546Z,21.77
2017-08-09T01:59:04.164Z,21.73
2017-08-09T01:59:44.758Z,21.76
2017-08-09T02:00:25.350Z,21.72
2017-08-09T02:01:05.923Z,21.7
2017-08-09T02:01:46.516Z,21.64
2017-08-09T02:02:27.096Z,21.64
2017-08-09T02:03:07.684Z,21.64
2017-08-09T02:03:48.280Z,21.69
2017-08-09T02:04:28.856Z,21.57
2017-08-09T02:05:09.446Z,21.6
2017-08-09T02:05:50.017Z,21.51
2017-08-09T02:06:30.584Z,21.58
2017-08-09T02:07:11.163Z,21.5
2017-08-09T02:07:51.748Z,21.51
2017-08-09T02:08:32.319Z,21.57
2017-08-09T02:09:12.907Z,21.48
2017-08-09T02:09:53.517Z,21.5
2017-08-09T02:10:34.093Z,21.46
2017-08-09T02:11:14.696Z,21.46
2017-08-09T02:11:55.273Z,21.46
2017-08-09T02:12:35.852Z,21.5
2017-08-09T02:13:16.441Z,21.46
2017-08-09T02:13:57.006Z,21.46
2017-08-09T02:14:37.599Z,21.45
2017-08-09T02:15:18.173Z,21.5
2017-08-09T02:15:58.766Z,21.52
2017-08-09T02:16:39.351Z,21.39
2017-08-09T02:17:19.935Z,21.4
2017-08-09T02:18:00.514Z,21.4
2017-08-09T02:18:41.107Z,21.35
2017-08-09T02:19:21.690Z,21.46
2017-08-09T02:20:02.274Z,21.37
2017-08-09T02:20:42.867Z,21.35
2017-08-09T02:21:23.447Z,21.43
2017-08-09T02:22:04.028Z,21.37
2017-08-09T02:22:44.623Z,21.45
2017-08-09T02:23:25.202Z,21.4
2017-08-09T02:24:05.778Z,21.39
2017-08-09T02:24:46.361Z,21.39
2017-08-09T02:25:26.976Z,21.35
2017-08-09T02:26:07.556Z,21.36
2017-08-09T02:26:48.128Z,21.35
2017-08-09T02:27:28.693Z,21.36
2017-08-09T02:28:09.255Z,21.39
2017-08-09T02:28:49.819Z,21.3
2017-08-09T02:29:30.399Z,21.36
2017-08-09T02:30:10.970Z,21.29
2017-08-09T02:30:51.550Z,21.37
2017-08-09T02:31:32.141Z,21.27
2017-08-09T02:32:12.756Z,21.4
2017-08-09T02:32:53.341Z,21.36
2017-08-09T02:33:33.913Z,21.35
2017-08-09T02:34:14.487Z,21.42
2017-08-09T02:34:55.096Z,21.35
2017-08-09T02:35:35.687Z,21.32
2017-08-09T02:36:16.272Z,21.3
2017-08-09T02:36:56.835Z,21.32
2017-08-09T02:37:37.412Z,21.25
2017-08-09T02:38:18.010Z,21.35
2017-08-09T02:38:58.584Z,21.3
2017-08-09T02:39:39.157Z,21.42
2017-08-09T02:40:19.710Z,21.3
2017-08-09T02:41:00.282Z,21.27
2017-08-09T02:41:40.875Z,21.3
2017-08-09T02:42:21.467Z,21.36
2017-08-09T02:43:02.034Z,21.35
2017-08-09T02:43:42.597Z,21.29
2017-08-09T02:44:23.183Z,21.3
2017-08-09T02:45:03.763Z,21.29
2017-08-09T02:45:44.386Z,21.32
2017-08-09T02:46:24.969Z,21.29
2017-08-09T02:47:05.558Z,21.27
2017-08-09T02:47:46.171Z,21.27
2017-08-09T02:48:26.742Z,21.32
2017-08-09T02:49:07.394Z,21.24
2017-08-09T02:49:47.965Z,21.15
2017-08-09T02:50:28.546Z,21.24
2017-08-09T02:51:09.137Z,21.17
2017-08-09T02:51:49.719Z,21.22
2017-08-09T02:52:30.293Z,21.2
2017-08-09T02:53:10.858Z,21.25
2017-08-09T02:53:51.433Z,21.18
2017-08-09T02:54:32.009Z,21.15
2017-08-09T02:55:12.579Z,21.18
2017-08-09T02:55:53.173Z,21.29
2017-08-09T02:56:33.745Z,21.22
2017-08-09T02:57:14.317Z,21.22
2017-08-09T02:57:54.902Z,21.2
2017-08-09T02:58:35.476Z,21.27
2017-08-09T02:59:16.047Z,21.18
2017-08-09T02:59:56.624Z,21.27
2017-08-09T03:00:37.199Z,21.22
2017-08-09T03:01:17.777Z,21.24
2017-08-09T03:01:58.358Z,21.21
2017-08-09T03:02:38.943Z,21.22
2017-08-09T03:03:19.517Z,21.21
2017-08-09T03:04:00.104Z,21.32
2017-08-09T03:04:40.692Z,21.24
2017-08-09T03:05:21.259Z,21.21
2017-08-09T03:06:01.838Z,21.21
2017-08-09T03:06:42.422Z,21.29
2017-08-09T03:07:23.012Z,21.29
2017-08-09T03:08:03.601Z,21.27
2017-08-09T03:08:44.212Z,21.27
2017-08-09T03:09:24.790Z,21.24
2017-08-09T03:10:05.358Z,21.27
2017-08-09T03:10:46.053Z,21.24
2017-08-09T03:11:26.625Z,21.32
2017-08-09T03:12:07.200Z,21.29
2017-08-09T03:12:47.767Z,21.27
2017-08-09T03:13:28.342Z,21.29
2017-08-09T03:14:08.904Z,21.29
2017-08-09T03:14:49.487Z,21.18
2017-08-09T03:15:30.073Z,21.17
2017-08-09T03:16:10.661Z,21.21
2017-08-09T03:16:51.246Z,21.24
2017-08-09T03:17:31.808Z,21.33
2017-08-09T03:18:12.384Z,21.15
2017-08-09T03:18:52.962Z,21.22
2017-08-09T03:19:33.555Z,21.21
2017-08-09T03:20:14.114Z,21.17
2017-08-09T03:20:54.706Z,21.22
2017-08-09T03:21:35.326Z,21.18
2017-08-09T03:22:15.917Z,21.15
2017-08-09T03:22:56.496Z,21.11
2017-08-09T03:23:37.105Z,21.22
2017-08-09T03:24:17.697Z,21.24
2017-08-09T03:24:58.269Z,21.2
2017-08-09T03:25:38.908Z,21.09
2017-08-09T03:26:19.492Z,21.11
2017-08-09T03:27:00.054Z,21.03
2017-08-09T03:27:40.604Z,21.14
2017-08-09T03:28:21.177Z,21.07
2017-08-09T03:29:01.765Z,21.09
2017-08-09T03:29:42.322Z,21.07
2017-08-09T03:30:22.915Z,21.14
2017-08-09T03:31:03.490Z,21.24
2017-08-09T03:31:44.071Z,21.2
2017-08-09T03:32:24.647Z,21.14
2017-08-09T03:33:05.237Z,21.11
2017-08-09T03:33:45.821Z,21.2
2017-08-09T03:34:26.396Z,21.12
2017-08-09T03:35:07.003Z,21.14
2017-08-09T03:35:47.585Z,21.03
2017-08-09T03:36:28.157Z,21.11
2017-08-09T03:37:08.754Z,21.11
2017-08-09T03:37:49.318Z,21.11
2017-08-09T03:38:29.914Z,21.07
2017-08-09T03:39:10.499Z,21.12
2017-08-09T03:39:51.080Z,21.03
2017-08-09T03:40:31.651Z,21.11
2017-08-09T03:41:12.216Z,21.07
2017-08-09T03:41:52.801Z,21.11
2017-08-09T03:42:33.376Z,20.99
2017-08-09T03:43:13.953Z,21.12
2017-08-09T03:43:54.558Z,21.03
2017-08-09T03:44:35.133Z,21.07
2017-08-09T03:45:15.701Z,21.05
2017-08-09T03:45:56.336Z,21.03
2017-08-09T03:46:36.927Z,21.09
2017-08-09T03:47:17.511Z,21.06
2017-08-09T03:47:58.089Z,21
2017-08-09T03:48:38.717Z,21.09
2017-08-09T03:49:19.276Z,20.99
2017-08-09T03:49:59.860Z,21.03
2017-08-09T03:50:40.468Z,21.02
2017-08-09T03:51:21.055Z,21.03
2017-08-09T03:52:01.642Z,20.96
2017-08-09T03:52:42.251Z,21.03
2017-08-09T03:53:22.846Z,21.03
2017-08-09T03:54:03.433Z,20.96
2017-08-09T03:54:44.008Z,20.99
2017-08-09T03:55:24.600Z,21
2017-08-09T03:56:05.182Z,20.99
2017-08-09T03:56:45.769Z,21.02
2017-08-09T03:57:26.377Z,21.02
2017-08-09T03:58:06.977Z,20.97
2017-08-09T03:58:47.586Z,21.05
2017-08-09T03:59:28.176Z,21.03
2017-08-09T04:00:08.754Z,21.05
2017-08-09T04:00:49.331Z,21.11
2017-08-09T04:01:29.893Z,21
2017-08-09T04:02:10.469Z,21.03
2017-08-09T04:02:51.041Z,21.09
2017-08-09T04:03:31.637Z,21
2017-08-09T04:04:12.222Z,21
2017-08-09T04:04:52.814Z,21.07
2017-08-09T04:05:33.400Z,21.06
2017-08-09T04:06:14.041Z,21.02
2017-08-09T04:06:54.631Z,21.11
2017-08-09T04:07:35.247Z,21.03
2017-08-09T04:08:15.830Z,21.02
2017-08-09T04:08:56.424Z,21.06
2017-08-09T04:09:37.008Z,21
2017-08-09T04:10:17.589Z,21
2017-08-09T04:10:58.216Z,21.02
2017-08-09T04:11:38.793Z,21
2017-08-09T04:12:19.381Z,21.02
2017-08-09T04:12:59.967Z,20.95
2017-08-09T04:13:40.563Z,20.9
2017-08-09T04:14:21.167Z,20.95
2017-08-09T04:15:01.755Z,20.97
2017-08-09T04:15:42.329Z,20.84
2017-08-09T04:16:22.898Z,20.97
2017-08-09T04:17:03.484Z,20.9
2017-08-09T04:17:44.055Z,20.96
2017-08-09T04:18:24.692Z,20.88
2017-08-09T04:19:05.263Z,20.81
2017-08-09T04:19:45.831Z,20.84
2017-08-09T04:20:26.426Z,20.82
2017-08-09T04:21:06.984Z,20.82
2017-08-09T04:21:47.571Z,20.85
2017-08-09T04:22:28.150Z,20.78
2017-08-09T04:23:08.725Z,20.81
2017-08-09T04:23:49.286Z,20.8
2017-08-09T04:24:29.868Z,20.84
2017-08-09T04:25:10.441Z,20.77
2017-08-09T04:25:51.052Z,20.85
2017-08-09T04:26:31.643Z,20.75
2017-08-09T04:27:12.228Z,20.77
2017-08-09T04:27:52.796Z,20.85
2017-08-09T04:28:33.386Z,20.84
2017-08-09T04:29:13.989Z,20.92
2017-08-09T04:29:54.577Z,20.92
2017-08-09T04:30:35.163Z,21.06
2017-08-09T04:31:15.762Z,20.99
2017-08-09T04:31:56.327Z,21.03
2017-08-09T04:32:36.933Z,21.17
2017-08-09T04:33:17.505Z,21.09
2017-08-09T04:33:58.088Z,21.12
2017-08-09T04:34:38.673Z,21.2
2017-08-09T04:35:19.248Z,21.17
2017-08-09T04:35:59.832Z,21.18
2017-08-09T04:36:40.402Z,21.2
2017-08-09T04:37:20.988Z,21.21
2017-08-09T04:38:01.571Z,21.24
2017-08-09T04:38:42.164Z,21.3
2017-08-09T04:39:22.728Z,21.29
2017-08-09T04:40:03.300Z,21.32
2017-08-09T04:40:43.871Z,21.37
2017-08-09T04:41:24.453Z,21.32
2017-08-09T04:42:05.037Z,21.39
2017-08-09T04:42:45.629Z,21.36
2017-08-09T04:43:26.199Z,21.39
2017-08-09T04:44:06.774Z,21.42
2017-08-09T04:44:47.356Z,21.4
2017-08-09T04:45:27.930Z,21.4
2017-08-09T04:46:08.508Z,21.37
2017-08-09T04:46:49.093Z,21.39
2017-08-09T04:47:29.695Z,21.48
2017-08-09T04:48:10.265Z,21.4
2017-08-09T04:48:50.845Z,21.5
2017-08-09T04:49:31.445Z,21.5
2017-08-09T04:50:12.169Z,21.51
2017-08-09T04:50:52.749Z,21.43
2017-08-09T04:51:33.319Z,21.48
2017-08-09T04:52:13.892Z,21.43
2017-08-09T04:52:54.479Z,21.46
2017-08-09T04:53:35.059Z,21.39
2017-08-09T04:54:15.665Z,21.51
2017-08-09T04:54:56.253Z,21.5
2017-08-09T04:55:36.826Z,21.45
2017-08-09T04:56:17.396Z,21.54
2017-08-09T04:56:57.989Z,21.51
2017-08-09T04:57:38.588Z,21.54
2017-08-09T04:58:19.179Z,21.51
2017-08-09T04:58:59.756Z,21.54
2017-08-09T04:59:40.364Z,21.57
2017-08-09T05:00:20.959Z,21.58
2017-08-09T05:01:01.557Z,21.64
2017-08-09T05:01:42.124Z,21.66
2017-08-09T05:02:22.704Z,21.66
2017-08-09T05:03:03.279Z,21.72
2017-08-09T05:03:43.880Z,21.73
2017-08-09T05:04:24.459Z,21.72
2017-08-09T05:05:05.018Z,21.76
2017-08-09T05:05:45.608Z,21.62
2017-08-09T05:06:26.187Z,21.7
2017-08-09T05:07:06.816Z,21.61
2017-08-09T05:07:47.388Z,21.62
2017-08-09T05:08:27.998Z,21.72
2017-08-09T05:09:08.562Z,21.64
2017-08-09T05:09:49.141Z,21.7
2017-08-09T05:10:29.738Z,21.64
2017-08-09T05:11:10.317Z,21.7
2017-08-09T05:11:50.895Z,21.67
2017-08-09T05:12:31.525Z,21.77
2017-08-09T05:13:12.113Z,21.83
2017-08-09T05:13:52.679Z,21.82
2017-08-09T05:14:33.263Z,21.8
2017-08-09T05:15:13.853Z,21.8
2017-08-09T05:15:54.424Z,21.88
2017-08-09T05:16:34.992Z,21.83
2017-08-09T05:17:15.567Z,21.8
2017-08-09T05:17:56.158Z,21.8
2017-08-09T05:18:36.743Z,21.77
2017-08-09T05:19:17.327Z,21.79
2017-08-09T05:19:57.883Z,21.85
2017-08-09T05:20:38.462Z,21.83
2017-08-09T05:21:19.051Z,21.8
2017-08-09T05:21:59.633Z,21.8
2017-08-09T05:22:40.213Z,21.8
2017-08-09T05:23:20.812Z,21.85
2017-08-09T05:24:01.407Z,21.96
2017-08-09T05:24:41.984Z,21.82
2017-08-09T05:25:22.559Z,21.89
2017-08-09T05:26:03.171Z,21.92
2017-08-09T05:26:43.756Z,21.92
2017-08-09T05:27:24.341Z,21.92
2017-08-09T05:28:04.929Z,21.92
2017-08-09T05:28:45.492Z,21.85
2017-08-09T05:29:26.084Z,21.92
2017-08-09T05:30:06.672Z,21.89
2017-08-09T05:30:47.238Z,21.91
2017-08-09T05:31:27.824Z,21.85
2017-08-09T05:32:08.411Z,21.91
2017-08-09T05:32:49.006Z,21.82
2017-08-09T05:33:29.600Z,21.77
2017-08-09T05:34:10.173Z,21.82
2017-08-09T05:34:50.744Z,21.88
2017-08-09T05:35:31.320Z,21.8
2017-08-09T05:36:11.910Z,21.83
2017-08-09T05:36:52.509Z,21.88
2017-08-09T05:37:33.105Z,21.77
2017-08-09T05:38:13.682Z,21.88
2017-08-09T05:38:54.262Z,21.77
2017-08-09T05:39:34.852Z,21.83
2017-08-09T05:40:15.428Z,21.88
2017-08-09T05:40:56.007Z,21.77
2017-08-09T05:41:36.581Z,21.83
2017-08-09T05:42:17.162Z,21.8
2017-08-09T05:42:57.757Z,21.82
2017-08-09T05:43:38.722Z,21.95
2017-08-09T05:44:19.322Z,21.93
2017-08-09T05:44:59.912Z,21.93
2017-08-09T05:45:40.519Z,21.92
2017-08-09T05:46:21.087Z,21.91
2017-08-09T05:47:01.685Z,21.93
2017-08-09T05:47:42.261Z,21.96
2017-08-09T05:48:22.843Z,22.1
2017-08-09T05:49:03.428Z,21.98
2017-08-09T05:49:44.042Z,22.08
2017-08-09T05:50:24.648Z,22.08
2017-08-09T05:51:05.367Z,22.13
2017-08-09T05:51:45.948Z,22.25
2017-08-09T05:52:26.528Z,22.25
2017-08-09T05:53:07.095Z,22.26
2017-08-09T05:53:47.682Z,22.33
2017-08-09T05:54:28.263Z,22.35
2017-08-09T05:55:08.856Z,22.43
2017-08-09T05:55:49.460Z,22.45
2017-08-09T05:56:30.041Z,22.66
2017-08-09T05:57:10.989Z,22.69
2017-08-09T05:57:52.120Z,22.81
2017-08-09T05:58:32.700Z,22.73
2017-08-09T05:59:13.282Z,22.9
2017-08-09T05:59:53.852Z,22.99
2017-08-09T06:00:34.433Z,23.05
2017-08-09T06:01:15.213Z,23.09
2017-08-09T06:01:55.828Z,23.1
2017-08-09T06:02:36.431Z,23.23
2017-08-09T06:03:17.020Z,23.31
2017-08-09T06:03:57.713Z,23.4
2017-08-09T06:04:38.306Z,23.47
2017-08-09T06:05:18.885Z,23.51
2017-08-09T06:06:00.001Z,23.51
2017-08-09T06:06:40.985Z,23.51
2017-08-09T06:07:21.568Z,23.62
2017-08-09T06:08:02.315Z,23.68
2017-08-09T06:08:43.339Z,23.77
2017-08-09T06:09:24.182Z,23.87
2017-08-09T06:10:04.989Z,23.92
2017-08-09T06:10:45.601Z,23.92
2017-08-09T06:11:26.363Z,24.13
2017-08-09T06:12:06.970Z,24.13
2017-08-09T06:12:47.893Z,24.23
2017-08-09T06:13:28.798Z,24.2
2017-08-09T06:14:09.520Z,24.29
2017-08-09T06:14:50.103Z,24.29
2017-08-09T06:15:30.690Z,24.42
2017-08-09T06:16:11.492Z,24.53
2017-08-09T06:16:52.483Z,24.54
2017-08-09T06:17:33.135Z,24.63
2017-08-09T06:18:13.913Z,24.68
2017-08-09T06:18:54.923Z,24.74
2017-08-09T06:19:35.611Z,24.85
2017-08-09T06:20:16.292Z,24.86
2017-08-09T06:20:57.165Z,24.95
2017-08-09T06:21:37.815Z,24.96
2017-08-09T06:22:18.750Z,25.11
2017-08-09T06:22:59.540Z,25.13
2017-08-09T06:23:40.254Z,25.16
2017-08-09T06:24:21.034Z,25.14
2017-08-09T06:25:01.610Z,25.22
2017-08-09T06:25:42.200Z,25.23
2017-08-09T06:26:22.775Z,25.36
2017-08-09T06:27:03.339Z,25.44
2017-08-09T06:27:43.932Z,25.44
2017-08-09T06:28:24.524Z,25.41
2017-08-09T06:29:05.131Z,25.38
2017-08-09T06:29:45.710Z,25.41
2017-08-09T06:30:26.329Z,25.41
2017-08-09T06:31:06.926Z,25.46
2017-08-09T06:31:47.542Z,25.53
2017-08-09T06:32:28.129Z,25.58
2017-08-09T06:33:08.729Z,25.54
2017-08-09T06:33:49.335Z,25.6
2017-08-09T06:34:29.936Z,25.58
2017-08-09T06:35:10.505Z,25.53
2017-08-09T06:35:51.083Z,25.65
2017-08-09T06:36:31.675Z,25.69
2017-08-09T06:37:12.283Z,25.7
2017-08-09T06:37:52.871Z,25.83
2017-08-09T06:38:33.476Z,25.87
2017-08-09T06:39:14.098Z,25.93
2017-08-09T06:39:54.702Z,25.93
2017-08-09T06:40:35.301Z,26
2017-08-09T06:41:15.893Z,26.13
2017-08-09T06:41:56.491Z,26.1
2017-08-09T06:42:37.105Z,26.18
2017-08-09T06:43:17.711Z,26.21
2017-08-09T06:43:58.293Z,26.19
2017-08-09T06:44:38.895Z,26.13
2017-08-09T06:45:19.487Z,26.33
2017-08-09T06:46:00.079Z,26.26
2017-08-09T06:46:40.693Z,26.26
2017-08-09T06:47:21.283Z,26.33
2017-08-09T06:48:01.874Z,26.31
2017-08-09T06:48:42.474Z,26.44
2017-08-09T06:49:23.080Z,26.45
2017-08-09T06:50:03.683Z,26.53
2017-08-09T06:50:44.289Z,26.63
2017-08-09T06:51:24.882Z,26.68
2017-08-09T06:52:05.489Z,26.71
2017-08-09T06:52:46.071Z,26.75
2017-08-09T06:53:26.659Z,26.78
2017-08-09T06:54:07.360Z,26.8
2017-08-09T06:54:47.960Z,26.88
2017-08-09T06:55:28.830Z,26.85
2017-08-09T06:56:09.739Z,26.77
2017-08-09T06:56:50.333Z,26.75
2017-08-09T06:57:31.495Z,26.75
2017-08-09T06:58:12.170Z,26.8
2017-08-09T06:58:52.873Z,26.75
2017-08-09T06:59:33.635Z,26.8
2017-08-09T07:00:14.251Z,26.71
2017-08-09T07:00:54.950Z,26.71
2017-08-09T07:01:35.566Z,26.66
2017-08-09T07:02:16.185Z,26.56
2017-08-09T07:02:56.937Z,26.53
2017-08-09T07:03:37.742Z,26.45
2017-08-09T07:04:18.346Z,26.36
2017-08-09T07:04:59.187Z,26.38
2017-08-09T07:05:39.793Z,26.29
2017-08-09T07:06:20.379Z,26.28
2017-08-09T07:07:00.984Z,26.25
2017-08-09T07:07:41.558Z,26.29
2017-08-09T07:08:22.161Z,26.15
2017-08-09T07:09:02.737Z,26.25
2017-08-09T07:09:43.307Z,26.15
2017-08-09T07:10:23.887Z,26.21
2017-08-09T07:11:04.485Z,26.05
2017-08-09T07:11:45.061Z,26.09
2017-08-09T07:12:25.640Z,26.09
2017-08-09T07:13:06.250Z,26.07
2017-08-09T07:13:46.845Z,25.99
2017-08-09T07:14:27.438Z,25.93
2017-08-09T07:15:08.023Z,25.98
2017-08-09T07:15:48.625Z,26
2017-08-09T07:16:29.242Z,25.95
2017-08-09T07:17:09.862Z,25.99
2017-08-09T07:17:50.455Z,26
2017-08-09T07:18:31.007Z,26.13
2017-08-09T07:19:11.630Z,26.03
2017-08-09T07:19:52.206Z,26.05
2017-08-09T07:20:32.791Z,26.15
2017-08-09T07:21:13.388Z,26.09
2017-08-09T07:21:53.991Z,26.05
2017-08-09T07:22:34.582Z,25.99
2017-08-09T07:23:15.164Z,26
2017-08-09T07:23:55.756Z,25.98
2017-08-09T07:24:36.337Z,26.06
2017-08-09T07:25:16.928Z,26.02
2017-08-09T07:25:57.508Z,26.09
2017-08-09T07:26:38.107Z,26.07
2017-08-09T07:27:18.728Z,26.16
2017-08-09T07:27:59.310Z,26.15
2017-08-09T07:28:39.901Z,26.09
2017-08-09T07:29:20.504Z,26.06
2017-08-09T07:30:01.083Z,26.06
2017-08-09T07:30:41.660Z,26.15
2017-08-09T07:31:22.252Z,26.02
2017-08-09T07:32:02.817Z,26
2017-08-09T07:32:43.412Z,25.96
2017-08-09T07:33:24.007Z,25.96
2017-08-09T07:34:04.616Z,25.87
2017-08-09T07:34:45.227Z,25.93
2017-08-09T07:35:25.807Z,25.98
2017-08-09T07:36:06.396Z,25.98
2017-08-09T07:36:47.017Z,25.99
2017-08-09T07:37:27.662Z,26.09
2017-08-09T07:38:08.246Z,26.21
2017-08-09T07:38:48.826Z,26.18
2017-08-09T07:39:29.425Z,26.23
2017-08-09T07:40:10.021Z,26.41
2017-08-09T07:40:50.612Z,26.36
2017-08-09T07:41:31.209Z,26.45
2017-08-09T07:42:11.811Z,26.45
2017-08-09T07:42:52.390Z,26.51
2017-08-09T07:43:33.017Z,26.48
2017-08-09T07:44:13.601Z,26.38
2017-08-09T07:44:54.188Z,26.38
2017-08-09T07:45:34.799Z,26.31
2017-08-09T07:46:15.381Z,26.16
2017-08-09T07:46:55.987Z,26.15
2017-08-09T07:47:36.572Z,25.96
2017-08-09T07:48:17.151Z,25.91
2017-08-09T07:48:57.727Z,25.81
2017-08-09T07:49:38.377Z,25.77
2017-08-09T07:50:18.953Z,25.72
2017-08-09T07:50:59.548Z,25.77
2017-08-09T07:51:40.141Z,25.69
2017-08-09T07:52:20.727Z,25.66
2017-08-09T07:53:01.315Z,25.62
2017-08-09T07:53:41.905Z,25.66
2017-08-09T07:54:22.501Z,25.7
2017-08-09T07:55:03.096Z,25.66
2017-08-09T07:55:43.663Z,25.69
2017-08-09T07:56:24.250Z,25.66
2017-08-09T07:57:04.856Z,25.73
2017-08-09T07:57:45.445Z,25.7
2017-08-09T07:58:26.029Z,25.69
2017-08-09T07:59:06.617Z,25.7
2017-08-09T07:59:47.236Z,25.68
2017-08-09T08:00:27.853Z,25.7
2017-08-09T08:01:08.473Z,25.63
2017-08-09T08:01:49.033Z,25.53
2017-08-09T08:02:29.645Z,25.58
2017-08-09T08:03:10.235Z,25.51
2017-08-09T08:03:50.809Z,25.48
2017-08-09T08:04:31.397Z,25.4
2017-08-09T08:05:11.988Z,25.4
2017-08-09T08:05:52.601Z,25.35
2017-08-09T08:06:33.210Z,25.28
2017-08-09T08:07:13.808Z,25.28
2017-08-09T08:07:54.414Z,25.28
2017-08-09T08:08:34.998Z,25.25
2017-08-09T08:09:15.583Z,25.25
2017-08-09T08:09:56.186Z,25.21
2017-08-09T08:10:36.781Z,25.16
2017-08-09T08:11:17.354Z,25.13
2017-08-09T08:11:58.023Z,25.17
2017-08-09T08:12:38.597Z,25.16
2017-08-09T08:13:19.309Z,25.22
2017-08-09T08:13:59.983Z,25.17
2017-08-09T08:14:40.588Z,25.14
2017-08-09T08:15:21.181Z,25.07
2017-08-09T08:16:01.760Z,25.1
2017-08-09T08:16:42.335Z,25.1
2017-08-09T08:17:22.926Z,25.08
2017-08-09T08:18:03.517Z,25.07
2017-08-09T08:18:44.091Z,25.06
2017-08-09T08:19:24.667Z,24.98
2017-08-09T08:20:05.287Z,25.08
2017-08-09T08:20:45.847Z,25.08
2017-08-09T08:21:26.448Z,25.08
2017-08-09T08:22:07.041Z,25.16
2017-08-09T08:22:47.627Z,25.1
2017-08-09T08:23:28.285Z,25.18
2017-08-09T08:24:08.933Z,25.07
2017-08-09T08:24:49.598Z,25.21
2017-08-09T08:25:30.195Z,25.13
2017-08-09T08:26:10.790Z,25.1
2017-08-09T08:26:51.409Z,25.11
2017-08-09T08:27:32.065Z,25.11
2017-08-09T08:28:12.652Z,25.08
2017-08-09T08:28:53.237Z,25.08
2017-08-09T08:29:33.857Z,25.11
2017-08-09T08:30:14.691Z,25.07
2017-08-09T08:30:55.774Z,24.89
2017-08-09T08:31:37.344Z,24.85
2017-08-09T08:32:17.815Z,24.93
2017-08-09T08:32:58.536Z,24.81
2017-08-09T08:33:39.270Z,24.84
2017-08-09T08:34:19.939Z,24.89
2017-08-09T08:35:00.588Z,24.73
2017-08-09T08:35:41.161Z,24.77
2017-08-09T08:36:21.749Z,24.73
2017-08-09T08:37:02.524Z,24.77
2017-08-09T08:37:43.345Z,24.66
2017-08-09T08:38:23.940Z,24.66
2017-08-09T08:39:04.568Z,24.68
2017-08-09T08:39:45.640Z,24.65
2017-08-09T08:40:26.421Z,24.69
2017-08-09T08:41:07.290Z,24.66
2017-08-09T08:41:48.299Z,24.65
2017-08-09T08:42:28.993Z,24.73
2017-08-09T08:43:09.593Z,24.78
2017-08-09T08:43:50.184Z,24.8
2017-08-09T08:44:30.791Z,24.92
2017-08-09T08:45:11.744Z,25.04
2017-08-09T08:45:52.332Z,25.13